sensor_id;sensor_type;location;lat;lon;timestamp;pressure;altitude;pressure_sealevel;temperature;humidity
12054;BME280;5638;50.860;4.698;2022-09-24T00:01:26;100923.84;;;16.17;nan
12054;BME280;5638;50.860;4.698;2022-09-24T00:03:56;100925.09;;;16.07;nan
12054;BME280;5638;50.860;4.698;2022-09-24T00:06:25;100918.41;;;16.00;nan
12054;BME280;5638;50.860;4.698;2022-09-24T00:08:54;100922.56;;;16.05;nan
12054;BME280;5638;50.860;4.698;2022-09-24T00:11:23;100925.28;;;16.02;nan
12054;BME280;5638;50.860;4.698;2022-09-24T00:13:51;100923.63;;;16.00;nan
12054;BME280;5638;50.860;4.698;2022-09-24T00:16:20;100918.63;;;15.93;nan
12054;BME280;5638;50.860;4.698;2022-09-24T00:18:47;100920.66;;;15.85;nan
12054;BME280;5638;50.860;4.698;2022-09-24T00:23:48;100909.78;;;15.98;nan
12054;BME280;5638;50.860;4.698;2022-09-24T00:26:14;100904.94;;;15.87;nan
12054;BME280;5638;50.860;4.698;2022-09-24T00:28:59;100902.41;;;15.85;nan
12054;BME280;5638;50.860;4.698;2022-09-24T00:31:25;100889.88;;;15.70;nan
12054;BME280;5638;50.860;4.698;2022-09-24T00:33:52;100909.41;;;15.83;nan
12054;BME280;5638;50.860;4.698;2022-09-24T00:36:21;100906.78;;;15.85;nan
12054;BME280;5638;50.860;4.698;2022-09-24T00:38:53;100900.84;;;15.80;nan
12054;BME280;5638;50.860;4.698;2022-09-24T00:41:22;100908.03;;;15.73;nan
12054;BME280;5638;50.860;4.698;2022-09-24T00:43:49;100900.13;;;16.00;nan
12054;BME280;5638;50.860;4.698;2022-09-24T00:48:54;100888.34;;;15.64;nan
12054;BME280;5638;50.860;4.698;2022-09-24T00:51:25;100891.53;;;15.73;nan
12054;BME280;5638;50.860;4.698;2022-09-24T00:54:00;100891.16;;;15.83;nan
12054;BME280;5638;50.860;4.698;2022-09-24T00:56:32;100885.03;;;15.84;nan
12054;BME280;5638;50.860;4.698;2022-09-24T00:59:03;100890.38;;;15.81;nan
12054;BME280;5638;50.860;4.698;2022-09-24T01:01:31;100876.66;;;15.75;nan
12054;BME280;5638;50.860;4.698;2022-09-24T01:03:59;100879.84;;;15.84;nan
12054;BME280;5638;50.860;4.698;2022-09-24T01:06:26;100883.22;;;15.86;nan
12054;BME280;5638;50.860;4.698;2022-09-24T01:08:54;100866.81;;;15.83;nan
12054;BME280;5638;50.860;4.698;2022-09-24T01:17:07;100857.97;;;15.87;nan
12054;BME280;5638;50.860;4.698;2022-09-24T01:23:04;100864.84;;;15.89;nan
12054;BME280;5638;50.860;4.698;2022-09-24T01:28:37;100853.59;;;15.87;nan
12054;BME280;5638;50.860;4.698;2022-09-24T01:31:29;100858.72;;;15.90;nan
12054;BME280;5638;50.860;4.698;2022-09-24T01:34:00;100854.00;;;15.77;nan
12054;BME280;5638;50.860;4.698;2022-09-24T01:36:33;100865.22;;;15.79;nan
12054;BME280;5638;50.860;4.698;2022-09-24T01:39:02;100848.81;;;15.75;nan
12054;BME280;5638;50.860;4.698;2022-09-24T01:41:30;100848.63;;;15.81;nan
12054;BME280;5638;50.860;4.698;2022-09-24T01:44:00;100845.16;;;15.81;nan
12054;BME280;5638;50.860;4.698;2022-09-24T01:46:30;100844.16;;;15.85;nan
12054;BME280;5638;50.860;4.698;2022-09-24T01:48:56;100846.78;;;15.83;nan
12054;BME280;5638;50.860;4.698;2022-09-24T01:51:37;100829.91;;;15.70;nan
12054;BME280;5638;50.860;4.698;2022-09-24T01:57:06;100825.75;;;15.63;nan
12054;BME280;5638;50.860;4.698;2022-09-24T02:00:05;100836.13;;;15.66;nan
12054;BME280;5638;50.860;4.698;2022-09-24T02:05:37;100824.28;;;15.56;nan
12054;BME280;5638;50.860;4.698;2022-09-24T02:08:20;100831.03;;;15.61;nan
12054;BME280;5638;50.860;4.698;2022-09-24T02:10:59;100814.63;;;15.59;nan
12054;BME280;5638;50.860;4.698;2022-09-24T02:16:25;100815.31;;;15.63;nan
12054;BME280;5638;50.860;4.698;2022-09-24T02:18:57;100819.66;;;15.64;nan
12054;BME280;5638;50.860;4.698;2022-09-24T02:21:27;100810.03;;;15.66;nan
12054;BME280;5638;50.860;4.698;2022-09-24T02:24:02;100816.84;;;15.70;nan
12054;BME280;5638;50.860;4.698;2022-09-24T02:26:30;100824.50;;;15.75;nan
12054;BME280;5638;50.860;4.698;2022-09-24T02:28:56;100811.03;;;15.62;nan
12054;BME280;5638;50.860;4.698;2022-09-24T02:31:38;100815.50;;;15.58;nan
12054;BME280;5638;50.860;4.698;2022-09-24T02:34:10;100806.16;;;15.53;nan
12054;BME280;5638;50.860;4.698;2022-09-24T02:36:48;100801.94;;;15.49;nan
12054;BME280;5638;50.860;4.698;2022-09-24T02:39:15;100800.19;;;15.49;nan
12054;BME280;5638;50.860;4.698;2022-09-24T02:41:44;100812.84;;;15.60;nan
12054;BME280;5638;50.860;4.698;2022-09-24T02:44:16;100812.72;;;15.64;nan
12054;BME280;5638;50.860;4.698;2022-09-24T02:46:43;100805.28;;;15.52;nan
12054;BME280;5638;50.860;4.698;2022-09-24T02:49:10;100807.84;;;15.54;nan
12054;BME280;5638;50.860;4.698;2022-09-24T02:51:36;100791.69;;;15.44;nan
12054;BME280;5638;50.860;4.698;2022-09-24T02:54:03;100800.84;;;15.56;nan
12054;BME280;5638;50.860;4.698;2022-09-24T02:56:29;100804.56;;;15.49;nan
12054;BME280;5638;50.860;4.698;2022-09-24T02:58:56;100803.69;;;15.48;nan
12054;BME280;5638;50.860;4.698;2022-09-24T03:01:22;100802.88;;;15.46;nan
12054;BME280;5638;50.860;4.698;2022-09-24T03:03:50;100806.47;;;15.43;nan
12054;BME280;5638;50.860;4.698;2022-09-24T03:06:16;100806.47;;;15.43;nan
12054;BME280;5638;50.860;4.698;2022-09-24T03:08:42;100793.22;;;15.50;nan
12054;BME280;5638;50.860;4.698;2022-09-24T03:11:10;100795.78;;;15.51;nan
12054;BME280;5638;50.860;4.698;2022-09-24T03:13:38;100784.81;;;15.41;nan
12054;BME280;5638;50.860;4.698;2022-09-24T03:16:05;100787.06;;;15.51;nan
12054;BME280;5638;50.860;4.698;2022-09-24T03:18:32;100771.16;;;15.35;nan
12054;BME280;5638;50.860;4.698;2022-09-24T03:21:09;100795.19;;;15.43;nan
12054;BME280;5638;50.860;4.698;2022-09-24T03:23:35;100792.84;;;15.35;nan
12054;BME280;5638;50.860;4.698;2022-09-24T03:26:03;100780.16;;;15.26;nan
12054;BME280;5638;50.860;4.698;2022-09-24T03:28:30;100769.19;;;15.16;nan
12054;BME280;5638;50.860;4.698;2022-09-24T03:30:56;100787.06;;;15.27;nan
12054;BME280;5638;50.860;4.698;2022-09-24T03:33:41;100783.59;;;15.27;nan
12054;BME280;5638;50.860;4.698;2022-09-24T03:36:11;100787.91;;;15.28;nan
12054;BME280;5638;50.860;4.698;2022-09-24T03:38:40;100791.88;;;15.38;nan
12054;BME280;5638;50.860;4.698;2022-09-24T03:41:08;100785.19;;;15.31;nan
12054;BME280;5638;50.860;4.698;2022-09-24T03:43:34;100781.63;;;15.33;nan
12054;BME280;5638;50.860;4.698;2022-09-24T03:46:00;100780.44;;;15.42;nan
12054;BME280;5638;50.860;4.698;2022-09-24T03:48:27;100779.59;;;15.41;nan
12054;BME280;5638;50.860;4.698;2022-09-24T03:50:54;100775.28;;;15.40;nan
12054;BME280;5638;50.860;4.698;2022-09-24T03:53:21;100769.41;;;15.35;nan
12054;BME280;5638;50.860;4.698;2022-09-24T03:55:57;100777.31;;;15.32;nan
12054;BME280;5638;50.860;4.698;2022-09-24T03:58:24;100769.44;;;15.34;nan
12054;BME280;5638;50.860;4.698;2022-09-24T04:00:54;100772.91;;;15.34;nan
12054;BME280;5638;50.860;4.698;2022-09-24T04:03:21;100765.28;;;15.28;nan
12054;BME280;5638;50.860;4.698;2022-09-24T04:05:48;100772.44;;;15.23;nan
12054;BME280;5638;50.860;4.698;2022-09-24T04:08:17;100771.63;;;15.21;nan
12054;BME280;5638;50.860;4.698;2022-09-24T04:10:48;100771.47;;;15.26;nan
12054;BME280;5638;50.860;4.698;2022-09-24T04:13:16;100763.59;;;15.27;nan
12054;BME280;5638;50.860;4.698;2022-09-24T04:15:42;100760.41;;;15.19;nan
12054;BME280;5638;50.860;4.698;2022-09-24T04:18:09;100760.47;;;15.17;nan
12054;BME280;5638;50.860;4.698;2022-09-24T04:20:35;100756.69;;;15.26;nan
12054;BME280;5638;50.860;4.698;2022-09-24T04:23:02;100751.66;;;15.22;nan
12054;BME280;5638;50.860;4.698;2022-09-24T04:25:30;100755.72;;;15.29;nan
12054;BME280;5638;50.860;4.698;2022-09-24T04:28:00;100755.31;;;15.16;nan
12054;BME280;5638;50.860;4.698;2022-09-24T04:30:28;100754.69;;;15.09;nan
12054;BME280;5638;50.860;4.698;2022-09-24T04:32:55;100748.59;;;15.09;nan
12054;BME280;5638;50.860;4.698;2022-09-24T04:35:26;100732.53;;;14.96;nan
12054;BME280;5638;50.860;4.698;2022-09-24T04:37:52;100741.16;;;14.98;nan
12054;BME280;5638;50.860;4.698;2022-09-24T04:40:18;100732.19;;;15.07;nan
12054;BME280;5638;50.860;4.698;2022-09-24T04:42:44;100741.69;;;15.08;nan
12054;BME280;5638;50.860;4.698;2022-09-24T04:45:13;100739.47;;;14.97;nan
12054;BME280;5638;50.860;4.698;2022-09-24T04:47:47;100743.38;;;15.09;nan
12054;BME280;5638;50.860;4.698;2022-09-24T04:50:18;100736.47;;;15.08;nan
12054;BME280;5638;50.860;4.698;2022-09-24T04:52:44;100742.66;;;15.05;nan
12054;BME280;5638;50.860;4.698;2022-09-24T04:55:10;100747.31;;;14.95;nan
12054;BME280;5638;50.860;4.698;2022-09-24T04:57:36;100736.13;;;14.93;nan
12054;BME280;5638;50.860;4.698;2022-09-24T05:00:09;100748.03;;;15.01;nan
12054;BME280;5638;50.860;4.698;2022-09-24T05:02:36;100737.88;;;14.93;nan
12054;BME280;5638;50.860;4.698;2022-09-24T05:05:01;100736.22;;;14.90;nan
12054;BME280;5638;50.860;4.698;2022-09-24T05:07:27;100743.53;;;15.04;nan
12054;BME280;5638;50.860;4.698;2022-09-24T05:09:53;100750.63;;;15.01;nan
12054;BME280;5638;50.860;4.698;2022-09-24T05:12:20;100745.38;;;15.02;nan
12054;BME280;5638;50.860;4.698;2022-09-24T05:14:46;100742.22;;;14.92;nan
12054;BME280;5638;50.860;4.698;2022-09-24T05:17:13;100741.41;;;14.90;nan
12054;BME280;5638;50.860;4.698;2022-09-24T05:19:40;100751.00;;;14.90;nan
12054;BME280;5638;50.860;4.698;2022-09-24T05:22:06;100744.78;;;14.94;nan
12054;BME280;5638;50.860;4.698;2022-09-24T05:24:32;100746.44;;;14.97;nan
12054;BME280;5638;50.860;4.698;2022-09-24T05:26:58;100745.63;;;14.94;nan
12054;BME280;5638;50.860;4.698;2022-09-24T05:29:41;100743.28;;;14.87;nan
12054;BME280;5638;50.860;4.698;2022-09-24T05:32:13;100750.56;;;15.02;nan
12054;BME280;5638;50.860;4.698;2022-09-24T05:34:42;100751.66;;;14.97;nan
12054;BME280;5638;50.860;4.698;2022-09-24T05:37:09;100717.38;;;14.82;nan
12054;BME280;5638;50.860;4.698;2022-09-24T05:39:35;100748.91;;;15.00;nan
12054;BME280;5638;50.860;4.698;2022-09-24T05:42:01;100753.84;;;14.82;nan
12054;BME280;5638;50.860;4.698;2022-09-24T05:44:32;100755.81;;;14.76;nan
12054;BME280;5638;50.860;4.698;2022-09-24T05:46:58;100725.09;;;14.59;nan
12054;BME280;5638;50.860;4.698;2022-09-24T05:49:24;100749.03;;;14.70;nan
12054;BME280;5638;50.860;4.698;2022-09-24T05:51:50;100752.50;;;14.70;nan
12054;BME280;5638;50.860;4.698;2022-09-24T05:54:17;100756.94;;;14.93;nan
12054;BME280;5638;50.860;4.698;2022-09-24T05:56:43;100760.34;;;14.95;nan
12054;BME280;5638;50.860;4.698;2022-09-24T05:59:10;100736.63;;;14.78;nan
12054;BME280;5638;50.860;4.698;2022-09-24T06:01:37;100748.53;;;14.85;nan
12054;BME280;5638;50.860;4.698;2022-09-24T06:04:03;100747.28;;;14.70;nan
12054;BME280;5638;50.860;4.698;2022-09-24T06:06:28;100743.91;;;14.68;nan
12054;BME280;5638;50.860;4.698;2022-09-24T06:08:54;100751.34;;;14.79;nan
12054;BME280;5638;50.860;4.698;2022-09-24T06:11:21;100749.81;;;14.74;nan
12054;BME280;5638;50.860;4.698;2022-09-24T06:13:48;100761.56;;;14.85;nan
12054;BME280;5638;50.860;4.698;2022-09-24T06:16:14;100764.09;;;14.88;nan
12054;BME280;5638;50.860;4.698;2022-09-24T06:18:41;100765.78;;;14.89;nan
12054;BME280;5638;50.860;4.698;2022-09-24T06:21:12;100763.97;;;14.65;nan
12054;BME280;5638;50.860;4.698;2022-09-24T06:23:40;100753.50;;;14.66;nan
12054;BME280;5638;50.860;4.698;2022-09-24T06:26:09;100757.53;;;14.77;nan
12054;BME280;5638;50.860;4.698;2022-09-24T06:28:37;100767.25;;;14.72;nan
12054;BME280;5638;50.860;4.698;2022-09-24T06:31:03;100767.56;;;14.87;nan
12054;BME280;5638;50.860;4.698;2022-09-24T06:33:30;100768.56;;;14.83;nan
12054;BME280;5638;50.860;4.698;2022-09-24T06:36:00;100771.31;;;14.79;nan
12054;BME280;5638;50.860;4.698;2022-09-24T06:38:27;100762.06;;;14.70;nan
12054;BME280;5638;50.860;4.698;2022-09-24T06:41:02;100780.00;;;14.79;nan
12054;BME280;5638;50.860;4.698;2022-09-24T06:43:30;100766.97;;;14.79;nan
12054;BME280;5638;50.860;4.698;2022-09-24T06:45:57;100776.97;;;14.91;nan
12054;BME280;5638;50.860;4.698;2022-09-24T06:48:24;100774.00;;;14.77;nan
12054;BME280;5638;50.860;4.698;2022-09-24T06:50:51;100775.09;;;14.70;nan
12054;BME280;5638;50.860;4.698;2022-09-24T06:53:17;100768.97;;;14.71;nan
12054;BME280;5638;50.860;4.698;2022-09-24T06:55:44;100769.09;;;14.68;nan
12054;BME280;5638;50.860;4.698;2022-09-24T06:58:14;100767.56;;;14.61;nan
12054;BME280;5638;50.860;4.698;2022-09-24T07:00:41;100772.22;;;14.78;nan
12054;BME280;5638;50.860;4.698;2022-09-24T07:03:14;100775.91;;;14.72;nan
12054;BME280;5638;50.860;4.698;2022-09-24T07:05:41;100779.78;;;14.59;nan
12054;BME280;5638;50.860;4.698;2022-09-24T07:08:07;100780.44;;;14.65;nan
12054;BME280;5638;50.860;4.698;2022-09-24T07:10:32;100786.59;;;14.63;nan
12054;BME280;5638;50.860;4.698;2022-09-24T07:12:59;100776.94;;;14.66;nan
12054;BME280;5638;50.860;4.698;2022-09-24T07:15:24;100787.94;;;14.76;nan
12054;BME280;5638;50.860;4.698;2022-09-24T07:17:56;100781.13;;;14.72;nan
12054;BME280;5638;50.860;4.698;2022-09-24T07:20:24;100783.66;;;14.74;nan
12054;BME280;5638;50.860;4.698;2022-09-24T07:22:53;100776.09;;;14.66;nan
12054;BME280;5638;50.860;4.698;2022-09-24T07:25:20;100793.91;;;14.78;nan
12054;BME280;5638;50.860;4.698;2022-09-24T07:27:47;100787.72;;;14.82;nan
12054;BME280;5638;50.860;4.698;2022-09-24T07:30:13;100789.31;;;14.86;nan
12054;BME280;5638;50.860;4.698;2022-09-24T07:32:39;100787.00;;;14.77;nan
12054;BME280;5638;50.860;4.698;2022-09-24T07:35:05;100784.41;;;14.77;nan
12054;BME280;5638;50.860;4.698;2022-09-24T07:37:31;100791.13;;;14.84;nan
12054;BME280;5638;50.860;4.698;2022-09-24T07:39:58;100795.94;;;14.97;nan
12054;BME280;5638;50.860;4.698;2022-09-24T07:42:24;100794.34;;;14.92;nan
12054;BME280;5638;50.860;4.698;2022-09-24T07:44:51;100795.31;;;15.15;nan
12054;BME280;5638;50.860;4.698;2022-09-24T07:47:17;100797.41;;;15.04;nan
12054;BME280;5638;50.860;4.698;2022-09-24T07:49:43;100789.72;;;15.01;nan
12054;BME280;5638;50.860;4.698;2022-09-24T07:52:10;100799.66;;;15.14;nan
12054;BME280;5638;50.860;4.698;2022-09-24T07:54:36;100794.34;;;14.92;nan
12054;BME280;5638;50.860;4.698;2022-09-24T07:57:06;100793.78;;;15.08;nan
12054;BME280;5638;50.860;4.698;2022-09-24T07:59:33;100790.19;;;15.12;nan
12054;BME280;5638;50.860;4.698;2022-09-24T08:01:59;100782.28;;;15.15;nan
12054;BME280;5638;50.860;4.698;2022-09-24T08:04:25;100795.19;;;15.18;nan
12054;BME280;5638;50.860;4.698;2022-09-24T08:06:51;100795.81;;;15.00;nan
12054;BME280;5638;50.860;4.698;2022-09-24T08:09:17;100792.19;;;15.04;nan
12054;BME280;5638;50.860;4.698;2022-09-24T08:11:43;100790.50;;;15.03;nan
12054;BME280;5638;50.860;4.698;2022-09-24T08:14:09;100774.88;;;15.03;nan
12054;BME280;5638;50.860;4.698;2022-09-24T08:16:35;100792.03;;;15.33;nan
12054;BME280;5638;50.860;4.698;2022-09-24T08:19:01;100785.19;;;15.31;nan
12054;BME280;5638;50.860;4.698;2022-09-24T08:21:27;100776.38;;;15.10;nan
12054;BME280;5638;50.860;4.698;2022-09-24T08:23:53;100793.63;;;15.12;nan
12054;BME280;5638;50.860;4.698;2022-09-24T08:26:20;100785.03;;;15.10;nan
12054;BME280;5638;50.860;4.698;2022-09-24T08:28:48;100787.53;;;15.13;nan
12054;BME280;5638;50.860;4.698;2022-09-24T08:31:14;100763.06;;;14.92;nan
12054;BME280;5638;50.860;4.698;2022-09-24T08:33:41;100787.41;;;14.91;nan
12054;BME280;5638;50.860;4.698;2022-09-24T08:36:09;100800.16;;;14.99;nan
12054;BME280;5638;50.860;4.698;2022-09-24T08:38:35;100795.78;;;15.01;nan
12054;BME280;5638;50.860;4.698;2022-09-24T08:44:37;100817.34;;;15.31;nan
12054;BME280;5638;50.860;4.698;2022-09-24T08:47:39;100816.78;;;15.47;nan
12054;BME280;5638;50.860;4.698;2022-09-24T08:50:23;100822.44;;;15.59;nan
12054;BME280;5638;50.860;4.698;2022-09-24T08:53:11;100817.53;;;15.50;nan
12054;BME280;5638;50.860;4.698;2022-09-24T08:55:51;100822.81;;;15.49;nan
12054;BME280;5638;50.860;4.698;2022-09-24T08:58:39;100817.59;;;15.49;nan
12054;BME280;5638;50.860;4.698;2022-09-24T09:09:37;100818.28;;;15.54;nan
12054;BME280;5638;50.860;4.698;2022-09-24T09:12:14;100831.88;;;15.62;nan
12054;BME280;5638;50.860;4.698;2022-09-24T09:14:57;100828.31;;;15.66;nan
12054;BME280;5638;50.860;4.698;2022-09-24T09:17:42;100834.72;;;15.81;nan
12054;BME280;5638;50.860;4.698;2022-09-24T09:20:20;100829.56;;;15.79;nan
12054;BME280;5638;50.860;4.698;2022-09-24T09:22:50;100825.53;;;15.71;nan
12054;BME280;5638;50.860;4.698;2022-09-24T09:25:32;100839.88;;;15.82;nan
12054;BME280;5638;50.860;4.698;2022-09-24T09:28:13;100829.25;;;15.88;nan
12054;BME280;5638;50.860;4.698;2022-09-24T09:39:00;100844.03;;;16.11;nan
12054;BME280;5638;50.860;4.698;2022-09-24T09:41:42;100826.03;;;16.04;nan
12054;BME280;5638;50.860;4.698;2022-09-24T09:44:24;100832.81;;;16.09;nan
12054;BME280;5638;50.860;4.698;2022-09-24T09:49:42;100836.44;;;16.05;nan
12054;BME280;5638;50.860;4.698;2022-09-24T09:52:21;100826.16;;;16.01;nan
12054;BME280;5638;50.860;4.698;2022-09-24T09:54:49;100820.31;;;15.94;nan
12054;BME280;5638;50.860;4.698;2022-09-24T09:57:23;100824.06;;;16.10;nan
12054;BME280;5638;50.860;4.698;2022-09-24T09:59:53;100823.41;;;16.05;nan
12054;BME280;5638;50.860;4.698;2022-09-24T10:02:32;100831.72;;;16.15;nan
12054;BME280;5638;50.860;4.698;2022-09-24T10:05:05;100830.34;;;16.05;nan
12054;BME280;5638;50.860;4.698;2022-09-24T10:07:31;100824.03;;;15.88;nan
12054;BME280;5638;50.860;4.698;2022-09-24T10:10:20;100828.66;;;16.04;nan
12054;BME280;5638;50.860;4.698;2022-09-24T10:13:10;100813.13;;;15.77;nan
12054;BME280;5638;50.860;4.698;2022-09-24T10:15:55;100813.22;;;15.74;nan
12054;BME280;5638;50.860;4.698;2022-09-24T10:21:13;100814.03;;;15.76;nan
12054;BME280;5638;50.860;4.698;2022-09-24T10:23:45;100835.16;;;15.92;nan
12054;BME280;5638;50.860;4.698;2022-09-24T10:26:14;100832.28;;;16.00;nan
12054;BME280;5638;50.860;4.698;2022-09-24T10:28:49;100832.25;;;16.01;nan
12054;BME280;5638;50.860;4.698;2022-09-24T10:31:37;100816.53;;;16.03;nan
12054;BME280;5638;50.860;4.698;2022-09-24T10:36:52;100839.31;;;16.21;nan
12054;BME280;5638;50.860;4.698;2022-09-24T10:39:20;100828.75;;;16.24;nan
12054;BME280;5638;50.860;4.698;2022-09-24T10:41:53;100831.16;;;16.30;nan
12054;BME280;5638;50.860;4.698;2022-09-24T10:44:21;100824.34;;;16.26;nan
12054;BME280;5638;50.860;4.698;2022-09-24T10:50:32;100834.72;;;16.28;nan
12054;BME280;5638;50.860;4.698;2022-09-24T10:53:07;100837.63;;;16.20;nan
12054;BME280;5638;50.860;4.698;2022-09-24T11:01:37;100833.19;;;16.22;nan
12054;BME280;5638;50.860;4.698;2022-09-24T11:07:29;100838.63;;;16.16;nan
12054;BME280;5638;50.860;4.698;2022-09-24T11:13:23;100840.16;;;16.22;nan
12054;BME280;5638;50.860;4.698;2022-09-24T11:22:13;100832.06;;;16.06;nan
12054;BME280;5638;50.860;4.698;2022-09-24T11:29:10;100840.69;;;16.08;nan
12054;BME280;5638;50.860;4.698;2022-09-24T11:43:57;100837.97;;;16.11;nan
12054;BME280;5638;50.860;4.698;2022-09-24T11:55:25;100834.50;;;16.10;nan
12054;BME280;5638;50.860;4.698;2022-09-24T12:01:20;100836.44;;;16.05;nan
12054;BME280;5638;50.860;4.698;2022-09-24T12:04:16;100836.44;;;16.05;nan
12054;BME280;5638;50.860;4.698;2022-09-24T12:06:56;100822.69;;;16.00;nan
12054;BME280;5638;50.860;4.698;2022-09-24T12:09:39;100830.34;;;16.05;nan
12054;BME280;5638;50.860;4.698;2022-09-24T12:12:16;100776.34;;;15.83;nan
12054;BME280;5638;50.860;4.698;2022-09-24T12:14:56;100825.88;;;16.08;nan
12054;BME280;5638;50.860;4.698;2022-09-24T12:17:54;100818.88;;;16.09;nan
12054;BME280;5638;50.860;4.698;2022-09-24T12:20:42;100822.84;;;15.97;nan
12054;BME280;5638;50.860;4.698;2022-09-24T12:23:14;100822.19;;;15.90;nan
12054;BME280;5638;50.860;4.698;2022-09-24T12:25:47;100821.41;;;15.88;nan
12054;BME280;5638;50.860;4.698;2022-09-24T12:28:17;100821.16;;;15.94;nan
12054;BME280;5638;50.860;4.698;2022-09-24T12:31:18;100814.47;;;15.87;nan
12054;BME280;5638;50.860;4.698;2022-09-24T12:37:09;100804.56;;;15.97;nan
12054;BME280;5638;50.860;4.698;2022-09-24T12:40:01;100808.91;;;15.73;nan
12054;BME280;5638;50.860;4.698;2022-09-24T12:42:34;100817.75;;;15.69;nan
12054;BME280;5638;50.860;4.698;2022-09-24T12:45:03;100810.09;;;15.64;nan
12054;BME280;5638;50.860;4.698;2022-09-24T12:47:44;100807.34;;;15.69;nan
12054;BME280;5638;50.860;4.698;2022-09-24T12:50:21;100816.34;;;15.84;nan
12054;BME280;5638;50.860;4.698;2022-09-24T12:52:49;100811.19;;;15.82;nan
12054;BME280;5638;50.860;4.698;2022-09-24T12:55:30;100807.28;;;15.94;nan
12054;BME280;5638;50.860;4.698;2022-09-24T12:58:25;100813.56;;;16.12;nan
12054;BME280;5638;50.860;4.698;2022-09-24T13:06:36;100800.63;;;16.09;nan
12054;BME280;5638;50.860;4.698;2022-09-24T13:11:48;100794.97;;;15.74;nan
12054;BME280;5638;50.860;4.698;2022-09-24T13:16:47;100783.94;;;15.67;nan
12054;BME280;5638;50.860;4.698;2022-09-24T13:21:59;100783.69;;;15.74;nan
12054;BME280;5638;50.860;4.698;2022-09-24T13:24:48;100787.81;;;15.79;nan
12054;BME280;5638;50.860;4.698;2022-09-24T13:32:48;100782.94;;;15.70;nan
12054;BME280;5638;50.860;4.698;2022-09-24T13:35:24;100790.31;;;15.82;nan
12054;BME280;5638;50.860;4.698;2022-09-24T13:38:02;100789.19;;;15.89;nan
12054;BME280;5638;50.860;4.698;2022-09-24T13:40:38;100784.75;;;15.91;nan
12054;BME280;5638;50.860;4.698;2022-09-24T13:43:18;100786.13;;;16.02;nan
12054;BME280;5638;50.860;4.698;2022-09-24T13:45:45;100780.53;;;15.89;nan
12054;BME280;5638;50.860;4.698;2022-09-24T13:48:36;100796.50;;;16.03;nan
12054;BME280;5638;50.860;4.698;2022-09-24T13:51:10;100795.19;;;16.15;nan
12054;BME280;5638;50.860;4.698;2022-09-24T13:53:41;100792.69;;;16.12;nan
12054;BME280;5638;50.860;4.698;2022-09-24T13:56:14;100791.72;;;16.14;nan
12054;BME280;5638;50.860;4.698;2022-09-24T13:58:42;100800.97;;;16.23;nan
12054;BME280;5638;50.860;4.698;2022-09-24T14:01:19;100797.50;;;16.23;nan
12054;BME280;5638;50.860;4.698;2022-09-24T14:03:53;100798.47;;;16.20;nan
12054;BME280;5638;50.860;4.698;2022-09-24T14:06:34;100798.09;;;16.29;nan
12054;BME280;5638;50.860;4.698;2022-09-24T14:09:13;100803.69;;;16.20;nan
12054;BME280;5638;50.860;4.698;2022-09-24T14:11:51;100801.34;;;16.12;nan
12054;BME280;5638;50.860;4.698;2022-09-24T14:14:20;100779.72;;;15.87;nan
12054;BME280;5638;50.860;4.698;2022-09-24T14:16:50;100795.47;;;16.07;nan
12054;BME280;5638;50.860;4.698;2022-09-24T14:19:20;100791.91;;;16.10;nan
12054;BME280;5638;50.860;4.698;2022-09-24T14:21:55;100799.59;;;16.13;nan
12054;BME280;5638;50.860;4.698;2022-09-24T14:24:29;100799.66;;;16.11;nan
12054;BME280;5638;50.860;4.698;2022-09-24T14:27:09;100799.22;;;16.00;nan
12054;BME280;5638;50.860;4.698;2022-09-24T14:32:30;100800.88;;;16.03;nan
12054;BME280;5638;50.860;4.698;2022-09-24T14:35:02;100800.97;;;16.00;nan
12054;BME280;5638;50.860;4.698;2022-09-24T14:37:33;100788.50;;;16.08;nan
12054;BME280;5638;50.860;4.698;2022-09-24T14:40:14;100796.75;;;15.97;nan
12054;BME280;5638;50.860;4.698;2022-09-24T14:42:48;100796.44;;;15.81;nan
12054;BME280;5638;50.860;4.698;2022-09-24T14:45:27;100792.81;;;15.85;nan
12054;BME280;5638;50.860;4.698;2022-09-24T14:48:30;100791.13;;;15.84;nan
12054;BME280;5638;50.860;4.698;2022-09-24T14:50:57;100803.94;;;15.90;nan
12054;BME280;5638;50.860;4.698;2022-09-24T14:53:35;100797.13;;;16.10;nan
12054;BME280;5638;50.860;4.698;2022-09-24T14:56:19;100805.41;;;15.98;nan
12054;BME280;5638;50.860;4.698;2022-09-24T14:58:46;100800.47;;;15.90;nan
12054;BME280;5638;50.860;4.698;2022-09-24T15:01:16;100801.44;;;15.87;nan
12054;BME280;5638;50.860;4.698;2022-09-24T15:03:53;100802.25;;;15.89;nan
12054;BME280;5638;50.860;4.698;2022-09-24T15:06:34;100799.72;;;15.86;nan
12054;BME280;5638;50.860;4.698;2022-09-24T15:09:25;100801.22;;;15.93;nan
12054;BME280;5638;50.860;4.698;2022-09-24T15:11:52;100795.44;;;15.85;nan
12054;BME280;5638;50.860;4.698;2022-09-24T15:14:30;100789.06;;;15.92;nan
12054;BME280;5638;50.860;4.698;2022-09-24T15:17:09;100800.97;;;16.00;nan
12054;BME280;5638;50.860;4.698;2022-09-24T15:19:43;100799.44;;;15.94;nan
12054;BME280;5638;50.860;4.698;2022-09-24T15:22:11;100795.16;;;15.93;nan
12054;BME280;5638;50.860;4.698;2022-09-24T15:24:36;100801.22;;;15.93;nan
12054;BME280;5638;50.860;4.698;2022-09-24T15:27:15;100810.09;;;15.88;nan
12054;BME280;5638;50.860;4.698;2022-09-24T15:29:43;100807.06;;;15.77;nan
12054;BME280;5638;50.860;4.698;2022-09-24T15:32:18;100809.81;;;15.96;nan
12054;BME280;5638;50.860;4.698;2022-09-24T15:34:44;100817.44;;;15.78;nan
12054;BME280;5638;50.860;4.698;2022-09-24T15:37:15;100815.84;;;15.74;nan
12054;BME280;5638;50.860;4.698;2022-09-24T15:39:43;100816.06;;;15.68;nan
12054;BME280;5638;50.860;4.698;2022-09-24T15:42:20;100817.03;;;15.65;nan
12054;BME280;5638;50.860;4.698;2022-09-24T15:44:47;100816.78;;;15.72;nan
12054;BME280;5638;50.860;4.698;2022-09-24T15:47:16;100828.50;;;15.85;nan
12054;BME280;5638;50.860;4.698;2022-09-24T15:49:43;100824.03;;;15.88;nan
12054;BME280;5638;50.860;4.698;2022-09-24T15:52:22;100821.09;;;15.96;nan
12054;BME280;5638;50.860;4.698;2022-09-24T15:54:51;100833.75;;;15.83;nan
12054;BME280;5638;50.860;4.698;2022-09-24T15:57:17;100841.59;;;15.83;nan